createdAt,value
2018-12-16T00:00:27.893Z,1007.65
2018-12-16T00:01:27.913Z,1007.73
2018-12-16T00:02:27.931Z,1007.78
2018-12-16T00:03:27.952Z,1007.76
2018-12-16T00:04:27.972Z,1007.84
2018-12-16T00:05:27.994Z,1007.87
2018-12-16T00:06:28.014Z,1007.83
2018-12-16T00:07:28.030Z,1007.83
2018-12-16T00:08:28.049Z,1007.83
2018-12-16T00:09:28.070Z,1007.82
2018-12-16T00:10:28.091Z,1007.82
2018-12-16T00:11:28.105Z,1007.75
2018-12-16T00:12:28.125Z,1007.73
2018-12-16T00:13:28.147Z,1007.59
2018-12-16T00:14:28.466Z,1007.60
2018-12-16T00:15:28.183Z,1007.64
2018-12-16T00:16:28.208Z,1007.57
2018-12-16T00:17:28.223Z,1007.59
2018-12-16T00:18:28.241Z,1007.63
2018-12-16T00:19:28.261Z,1007.58
2018-12-16T00:20:28.281Z,1007.56
2018-12-16T00:21:28.303Z,1007.57
2018-12-16T00:22:29.968Z,1007.60
2018-12-16T00:23:28.338Z,1007.57
2018-12-16T00:24:28.361Z,1007.58
2018-12-16T00:25:28.381Z,1007.58
2018-12-16T00:26:28.400Z,1007.56
2018-12-16T00:27:28.420Z,1007.58
2018-12-16T00:28:28.440Z,1007.62
2018-12-16T00:29:28.457Z,1007.62
2018-12-16T00:30:28.478Z,1007.61
2018-12-16T00:31:28.496Z,1007.58
2018-12-16T00:32:28.518Z,1007.52
2018-12-16T00:33:28.538Z,1007.56
2018-12-16T00:34:28.557Z,1007.58
2018-12-16T00:35:28.574Z,1007.52
2018-12-16T00:36:28.593Z,1007.56
2018-12-16T00:37:28.614Z,1007.53
2018-12-16T00:38:28.635Z,1007.55
2018-12-16T00:39:28.655Z,1007.54
2018-12-16T00:40:28.673Z,1007.56
2018-12-16T00:41:28.691Z,1007.56
2018-12-16T00:42:28.714Z,1007.48
2018-12-16T00:43:28.731Z,1007.50
2018-12-16T00:44:28.751Z,1007.46
2018-12-16T00:45:28.774Z,1007.37
2018-12-16T00:46:28.790Z,1007.34
2018-12-16T00:47:28.815Z,1007.40
2018-12-16T00:48:29.032Z,1007.36
2018-12-16T00:49:28.853Z,1007.33
2018-12-16T00:50:28.871Z,1007.51
2018-12-16T00:51:28.894Z,1007.51
2018-12-16T00:52:28.911Z,1007.54
2018-12-16T00:53:28.928Z,1007.56
2018-12-16T00:54:28.950Z,1007.55
2018-12-16T00:55:28.968Z,1007.52
2018-12-16T00:56:28.994Z,1007.55
2018-12-16T00:57:29.012Z,1007.54
2018-12-16T00:58:29.027Z,1007.58
2018-12-16T00:59:29.049Z,1007.57
2018-12-16T01:00:29.069Z,1007.47
2018-12-16T01:01:29.087Z,1007.46
2018-12-16T01:02:29.105Z,1007.46
2018-12-16T01:03:29.128Z,1007.46
2018-12-16T01:04:29.147Z,1007.44
2018-12-16T01:05:29.168Z,1007.45
2018-12-16T01:06:29.188Z,1007.42
2018-12-16T01:07:29.207Z,1007.41
2018-12-16T01:08:29.227Z,1007.39
2018-12-16T01:09:29.247Z,1007.39
2018-12-16T01:10:29.263Z,1007.40
2018-12-16T01:11:29.283Z,1007.43
2018-12-16T01:12:29.306Z,1007.44
2018-12-16T01:13:29.326Z,1007.38
2018-12-16T01:14:29.345Z,1007.38
2018-12-16T01:15:29.363Z,1007.37
2018-12-16T01:16:29.447Z,1007.31
2018-12-16T01:17:29.405Z,1007.33
2018-12-16T01:18:29.424Z,1007.31
2018-12-16T01:19:29.444Z,1007.37
2018-12-16T01:20:29.461Z,1007.33
2018-12-16T01:21:29.481Z,1007.30
2018-12-16T01:22:29.501Z,1007.27
2018-12-16T01:23:29.519Z,1007.22
2018-12-16T01:24:29.547Z,1007.20
2018-12-16T01:25:29.561Z,1007.22
2018-12-16T01:26:29.582Z,1007.27
2018-12-16T01:27:29.602Z,1007.24
2018-12-16T01:28:29.822Z,1007.24
2018-12-16T01:29:29.640Z,1007.20
2018-12-16T01:30:29.659Z,1007.25
2018-12-16T01:31:29.679Z,1007.19
2018-12-16T01:32:29.700Z,1007.17
2018-12-16T01:33:29.719Z,1007.14
2018-12-16T01:34:29.738Z,1007.13
2018-12-16T01:35:29.760Z,1007.11
2018-12-16T01:36:29.786Z,1007.15
2018-12-16T01:37:29.802Z,1007.13
2018-12-16T01:38:29.820Z,1007.10
2018-12-16T01:39:29.843Z,1007.05
2018-12-16T01:40:29.860Z,1006.97
2018-12-16T01:41:29.880Z,1007.02
2018-12-16T01:42:29.902Z,1006.89
2018-12-16T01:43:29.917Z,1006.96
2018-12-16T01:44:29.939Z,1006.93
2018-12-16T01:45:29.960Z,1006.90
2018-12-16T01:46:29.979Z,1006.89
2018-12-16T01:47:29.996Z,1006.84
2018-12-16T01:48:30.016Z,1006.80
2018-12-16T01:49:30.036Z,1006.78
2018-12-16T01:50:30.057Z,1006.74
2018-12-16T01:51:30.075Z,1006.73
2018-12-16T01:52:30.098Z,1006.72
2018-12-16T01:53:30.115Z,1006.72
2018-12-16T01:54:30.135Z,1006.76
2018-12-16T01:55:30.157Z,1006.69
2018-12-16T01:56:30.175Z,1006.74
2018-12-16T01:57:30.195Z,1006.73
2018-12-16T01:58:30.214Z,1006.72
2018-12-16T01:59:30.236Z,1006.69
2018-12-16T02:00:30.256Z,1006.71
2018-12-16T02:01:30.276Z,1006.69
2018-12-16T02:02:30.293Z,1006.56
2018-12-16T02:03:30.315Z,1006.58
2018-12-16T02:04:30.337Z,1006.57
2018-12-16T02:05:30.352Z,1006.52
2018-12-16T02:06:30.372Z,1006.52
2018-12-16T02:07:30.394Z,1006.47
2018-12-16T02:08:30.416Z,1006.40
2018-12-16T02:09:30.433Z,1006.42
2018-12-16T02:10:30.452Z,1006.45
2018-12-16T02:11:30.474Z,1006.47
2018-12-16T02:12:30.491Z,1006.48
2018-12-16T02:13:30.512Z,1006.51
2018-12-16T02:14:30.530Z,1006.49
2018-12-16T02:15:30.553Z,1006.45
2018-12-16T02:16:30.577Z,1006.45
2018-12-16T02:17:30.591Z,1006.45
2018-12-16T02:18:30.611Z,1006.42
2018-12-16T02:19:30.630Z,1006.41
2018-12-16T02:20:30.654Z,1006.42
2018-12-16T02:21:30.673Z,1006.37
2018-12-16T02:22:30.692Z,1006.42
2018-12-16T02:23:30.712Z,1006.42
2018-12-16T02:24:30.730Z,1006.37
2018-12-16T02:25:30.752Z,1006.26
2018-12-16T02:26:30.771Z,1006.30
2018-12-16T02:27:30.793Z,1006.29
2018-12-16T02:28:30.812Z,1006.24
2018-12-16T02:29:30.833Z,1006.27
2018-12-16T02:30:30.848Z,1006.18
2018-12-16T02:31:30.871Z,1006.18
2018-12-16T02:32:30.892Z,1006.16
2018-12-16T02:33:30.911Z,1006.14
2018-12-16T02:34:30.932Z,1006.12
2018-12-16T02:35:30.953Z,1006.08
2018-12-16T02:36:30.977Z,1006.06
2018-12-16T02:37:30.992Z,1006.05
2018-12-16T02:38:31.010Z,1006.06
2018-12-16T02:39:31.028Z,1006.02
2018-12-16T02:40:31.051Z,1005.97
2018-12-16T02:41:31.071Z,1005.93
2018-12-16T02:42:31.291Z,1005.86
2018-12-16T02:43:31.107Z,1005.82
2018-12-16T02:44:31.131Z,1005.81
2018-12-16T02:45:31.149Z,1005.81
2018-12-16T02:46:31.170Z,1005.77
2018-12-16T02:47:31.189Z,1005.78
2018-12-16T02:48:31.209Z,1005.73
2018-12-16T02:49:31.228Z,1005.76
2018-12-16T02:50:31.250Z,1005.78
2018-12-16T02:51:31.267Z,1005.68
2018-12-16T02:52:31.289Z,1005.70
2018-12-16T02:53:31.307Z,1005.67
2018-12-16T02:54:31.332Z,1005.68
2018-12-16T02:55:31.349Z,1005.64
2018-12-16T02:56:31.372Z,1005.68
2018-12-16T02:57:31.387Z,1005.56
2018-12-16T02:58:31.607Z,1005.58
2018-12-16T02:59:31.425Z,1005.56
2018-12-16T03:00:31.447Z,1005.62
2018-12-16T03:01:31.473Z,1005.61
2018-12-16T03:02:31.493Z,1005.60
2018-12-16T03:03:31.509Z,1005.63
2018-12-16T03:04:31.529Z,1005.60
2018-12-16T03:05:31.550Z,1005.57
2018-12-16T03:06:31.570Z,1005.48
2018-12-16T03:07:31.588Z,1005.50
2018-12-16T03:08:31.607Z,1005.43
2018-12-16T03:09:31.629Z,1005.39
2018-12-16T03:10:31.648Z,1005.40
2018-12-16T03:11:31.669Z,1005.39
2018-12-16T03:12:31.689Z,1005.40
2018-12-16T03:13:31.715Z,1005.37
2018-12-16T03:14:31.728Z,1005.39
2018-12-16T03:15:31.745Z,1005.28
2018-12-16T03:16:31.771Z,1005.23
2018-12-16T03:17:31.793Z,1005.19
2018-12-16T03:18:31.805Z,1005.16
2018-12-16T03:19:31.824Z,1005.10
2018-12-16T03:20:31.846Z,1005.04
2018-12-16T03:21:31.868Z,1005.04
2018-12-16T03:22:31.888Z,1005.02
2018-12-16T03:23:31.907Z,1004.99
2018-12-16T03:24:31.926Z,1005.00
2018-12-16T03:25:31.950Z,1004.98
2018-12-16T03:26:35.870Z,1004.98
2018-12-16T03:27:31.988Z,1004.94
2018-12-16T03:28:32.008Z,1004.90
2018-12-16T03:29:32.026Z,1004.88
2018-12-16T03:30:32.049Z,1004.84
2018-12-16T03:31:32.074Z,1004.83
2018-12-16T03:32:32.090Z,1004.87
2018-12-16T03:33:32.109Z,1004.86
2018-12-16T03:34:32.128Z,1004.86
2018-12-16T03:35:32.147Z,1004.84
2018-12-16T03:36:32.174Z,1004.91
2018-12-16T03:37:32.188Z,1004.87
2018-12-16T03:38:32.212Z,1004.86
2018-12-16T03:39:32.224Z,1004.88
2018-12-16T03:40:32.247Z,1004.87
2018-12-16T03:41:32.267Z,1004.81
2018-12-16T03:42:32.287Z,1004.85
2018-12-16T03:43:32.310Z,1004.74
2018-12-16T03:44:32.326Z,1004.78
2018-12-16T03:45:32.348Z,1004.76
2018-12-16T03:46:32.365Z,1004.71
2018-12-16T03:47:32.387Z,1004.67
2018-12-16T03:48:32.407Z,1004.67
2018-12-16T03:49:32.427Z,1004.63
2018-12-16T03:50:32.455Z,1004.62
2018-12-16T03:51:32.468Z,1004.62
2018-12-16T03:52:32.485Z,1004.67
2018-12-16T03:53:32.505Z,1004.67
2018-12-16T03:54:32.525Z,1004.63
2018-12-16T03:55:32.547Z,1004.64
2018-12-16T03:56:32.787Z,1004.67
2018-12-16T03:57:32.588Z,1004.64
2018-12-16T03:58:32.619Z,1004.67
2018-12-16T03:59:32.624Z,1004.65
2018-12-16T04:00:32.648Z,1004.61
2018-12-16T04:01:32.665Z,1004.60
2018-12-16T04:02:32.684Z,1004.52
2018-12-16T04:03:32.706Z,1004.57
2018-12-16T04:04:32.728Z,1004.45
2018-12-16T04:05:32.745Z,1004.51
2018-12-16T04:06:32.765Z,1004.41
2018-12-16T04:07:32.788Z,1004.41
2018-12-16T04:08:32.809Z,1004.43
2018-12-16T04:09:32.829Z,1004.39
2018-12-16T04:10:32.847Z,1004.32
2018-12-16T04:11:32.881Z,1004.39
2018-12-16T04:12:32.889Z,1004.33
2018-12-16T04:13:32.910Z,1004.33
2018-12-16T04:14:32.930Z,1004.29
2018-12-16T04:15:32.950Z,1004.34
2018-12-16T04:16:32.967Z,1004.33
2018-12-16T04:17:32.991Z,1004.31
2018-12-16T04:18:33.007Z,1004.31
2018-12-16T04:19:33.034Z,1004.29
2018-12-16T04:20:33.049Z,1004.25
2018-12-16T04:21:33.070Z,1004.29
2018-12-16T04:22:33.092Z,1004.30
2018-12-16T04:23:33.111Z,1004.35
2018-12-16T04:24:33.131Z,1004.30
2018-12-16T04:25:33.151Z,1004.37
2018-12-16T04:26:33.181Z,1004.39
2018-12-16T04:27:33.195Z,1004.38
2018-12-16T04:28:33.213Z,1004.35
2018-12-16T04:29:33.232Z,1004.38
2018-12-16T04:30:33.252Z,1004.35
2018-12-16T04:31:33.273Z,1004.39
2018-12-16T04:32:33.291Z,1004.39
2018-12-16T04:33:33.309Z,1004.41
2018-12-16T04:34:33.343Z,1004.39
2018-12-16T04:35:33.353Z,1004.43
2018-12-16T04:36:33.373Z,1004.45
2018-12-16T04:37:33.399Z,1004.42
2018-12-16T04:38:33.424Z,1004.42
2018-12-16T04:39:33.435Z,1004.40
2018-12-16T04:40:33.455Z,1004.37
2018-12-16T04:41:33.478Z,1004.36
2018-12-16T04:42:33.498Z,1004.39
2018-12-16T04:43:33.513Z,1004.38
2018-12-16T04:44:33.532Z,1004.31
2018-12-16T04:45:33.758Z,1004.32
2018-12-16T04:46:33.571Z,1004.36
2018-12-16T04:47:33.594Z,1004.31
2018-12-16T04:48:33.614Z,1004.38
2018-12-16T04:49:33.632Z,1004.24
2018-12-16T04:50:33.653Z,1004.28
2018-12-16T04:51:33.672Z,1004.31
2018-12-16T04:52:33.704Z,1004.25
2018-12-16T04:53:36.916Z,1004.19
2018-12-16T04:54:33.732Z,1004.26
2018-12-16T04:55:33.758Z,1004.15
2018-12-16T04:56:33.779Z,1004.21
2018-12-16T04:57:33.795Z,1004.16
2018-12-16T04:58:33.819Z,1004.20
2018-12-16T04:59:33.835Z,1004.20
2018-12-16T05:00:33.860Z,1004.18
2018-12-16T05:01:33.879Z,1004.17
2018-12-16T05:02:33.900Z,1004.18
2018-12-16T05:03:33.918Z,1004.19
2018-12-16T05:04:33.939Z,1004.19
2018-12-16T05:05:33.957Z,1004.15
2018-12-16T05:06:33.980Z,1004.26
2018-12-16T05:07:34.001Z,1004.20
2018-12-16T05:08:34.020Z,1004.28
2018-12-16T05:09:34.041Z,1004.26
2018-12-16T05:10:34.060Z,1004.26
2018-12-16T05:11:34.081Z,1004.26
2018-12-16T05:12:34.105Z,1004.25
2018-12-16T05:13:34.121Z,1004.21
2018-12-16T05:14:34.141Z,1004.21
2018-12-16T05:15:34.160Z,1004.19
2018-12-16T05:16:34.180Z,1004.20
2018-12-16T05:17:34.201Z,1004.14
2018-12-16T05:18:34.306Z,1004.14
2018-12-16T05:19:34.239Z,1004.19
2018-12-16T05:20:34.267Z,1004.10
2018-12-16T05:21:34.280Z,1004.11
2018-12-16T05:22:34.302Z,1004.07
2018-12-16T05:23:34.320Z,1004.04
2018-12-16T05:24:34.344Z,1004.06
2018-12-16T05:25:34.368Z,1004.06
2018-12-16T05:26:34.382Z,1004.07
2018-12-16T05:27:34.400Z,1004.07
2018-12-16T05:28:34.421Z,1004.04
2018-12-16T05:29:34.441Z,1004.03
2018-12-16T05:30:34.461Z,1004.07
2018-12-16T05:31:34.483Z,1004.06
2018-12-16T05:32:34.503Z,1004.08
2018-12-16T05:33:34.727Z,1004.07
2018-12-16T05:34:34.544Z,1004.09
2018-12-16T05:35:34.560Z,1004.07
2018-12-16T05:36:34.586Z,1004.05
2018-12-16T05:37:34.602Z,1004.03
2018-12-16T05:38:34.622Z,1004.03
2018-12-16T05:39:34.642Z,1004.10
2018-12-16T05:40:34.661Z,1004.01
2018-12-16T05:41:34.683Z,1004.00
2018-12-16T05:42:34.702Z,1003.99
2018-12-16T05:43:34.725Z,1003.98
2018-12-16T05:44:34.745Z,1004.02
2018-12-16T05:45:34.763Z,1003.98
2018-12-16T05:46:34.785Z,1003.99
2018-12-16T05:47:34.805Z,1004.04
2018-12-16T05:48:34.826Z,1003.99
2018-12-16T05:49:34.846Z,1003.95
2018-12-16T05:50:34.865Z,1003.99
2018-12-16T05:51:34.886Z,1003.90
2018-12-16T05:52:34.904Z,1003.93
2018-12-16T05:53:34.927Z,1003.96
2018-12-16T05:54:34.944Z,1003.93
2018-12-16T05:55:34.964Z,1003.94
2018-12-16T05:56:34.990Z,1003.94
2018-12-16T05:57:35.005Z,1003.94
2018-12-16T05:58:35.027Z,1003.92
2018-12-16T05:59:35.047Z,1003.92
2018-12-16T06:00:35.065Z,1003.98
2018-12-16T06:01:35.085Z,1003.92
2018-12-16T06:02:35.105Z,1003.95
2018-12-16T06:03:35.126Z,1003.90
2018-12-16T06:04:35.148Z,1003.94
2018-12-16T06:05:35.169Z,1003.85
2018-12-16T06:06:35.190Z,1003.95
2018-12-16T06:07:35.208Z,1003.94
2018-12-16T06:08:35.226Z,1003.94
2018-12-16T06:09:35.247Z,1003.95
2018-12-16T06:10:35.265Z,1003.92
2018-12-16T06:11:35.289Z,1003.94
2018-12-16T06:12:35.307Z,1004.05
2018-12-16T06:13:35.327Z,1004.01
2018-12-16T06:14:35.348Z,1004.06
2018-12-16T06:15:35.365Z,1004.07
2018-12-16T06:16:35.776Z,1004.09
2018-12-16T06:17:35.406Z,1004.07
2018-12-16T06:18:35.428Z,1004.06
2018-12-16T06:19:35.449Z,1004.10
2018-12-16T06:20:35.469Z,1004.09
2018-12-16T06:21:35.488Z,1004.09
2018-12-16T06:22:35.508Z,1004.07
2018-12-16T06:23:35.527Z,1004.02
2018-12-16T06:24:35.548Z,1004.02
2018-12-16T06:25:35.568Z,1003.99
2018-12-16T06:26:35.593Z,1003.96
2018-12-16T06:27:35.606Z,1003.94
2018-12-16T06:28:35.629Z,1003.85
2018-12-16T06:29:35.648Z,1003.87
2018-12-16T06:30:35.669Z,1003.87
2018-12-16T06:31:35.686Z,1003.97
2018-12-16T06:32:35.727Z,1003.93
2018-12-16T06:33:35.728Z,1004.00
2018-12-16T06:34:35.746Z,1003.94
2018-12-16T06:35:35.767Z,1003.94
2018-12-16T06:36:35.788Z,1003.95
2018-12-16T06:37:35.808Z,1004.00
2018-12-16T06:38:35.826Z,1004.02
2018-12-16T06:39:36.048Z,1004.00
2018-12-16T06:40:35.868Z,1003.99
2018-12-16T06:41:35.889Z,1003.95
2018-12-16T06:42:35.908Z,1003.95
2018-12-16T06:43:35.924Z,1003.94
2018-12-16T06:44:35.948Z,1003.91
2018-12-16T06:45:35.966Z,1003.94
2018-12-16T06:46:35.986Z,1003.91
2018-12-16T06:47:36.008Z,1003.94
2018-12-16T06:48:36.025Z,1003.95
2018-12-16T06:49:36.045Z,1003.97
2018-12-16T06:50:36.066Z,1003.98
2018-12-16T06:51:36.086Z,1003.97
2018-12-16T06:52:36.104Z,1003.93
2018-12-16T06:53:36.127Z,1003.89
2018-12-16T06:54:36.146Z,1003.95
2018-12-16T06:55:43.112Z,1004.00
2018-12-16T06:56:36.184Z,1003.96
2018-12-16T06:57:36.204Z,1004.02
2018-12-16T06:58:36.223Z,1003.99
2018-12-16T06:59:36.243Z,1003.97
2018-12-16T07:00:36.265Z,1003.98
2018-12-16T07:01:36.285Z,1004.01
2018-12-16T07:02:36.302Z,1003.95
2018-12-16T07:03:36.323Z,1003.96
2018-12-16T07:04:36.346Z,1003.96
2018-12-16T07:05:36.363Z,1003.97
2018-12-16T07:06:36.384Z,1003.97
2018-12-16T07:07:36.404Z,1004.07
2018-12-16T07:08:36.422Z,1003.95
2018-12-16T07:09:36.441Z,1004.01
2018-12-16T07:10:36.463Z,1004.03
2018-12-16T07:11:36.484Z,1004.00
2018-12-16T07:12:36.500Z,1004.02
2018-12-16T07:13:36.544Z,1004.01
2018-12-16T07:14:36.564Z,1003.97
2018-12-16T07:15:36.565Z,1004.04
2018-12-16T07:16:36.582Z,1004.00
2018-12-16T07:17:36.636Z,1004.05
2018-12-16T07:18:36.621Z,1004.09
2018-12-16T07:19:36.668Z,1004.11
2018-12-16T07:20:36.658Z,1004.15
2018-12-16T07:21:36.679Z,1004.16
2018-12-16T07:22:36.697Z,1004.13
2018-12-16T07:23:36.719Z,1004.15
2018-12-16T07:24:36.751Z,1004.16
2018-12-16T07:25:36.760Z,1004.15
2018-12-16T07:26:36.776Z,1004.16
2018-12-16T07:27:36.796Z,1004.14
2018-12-16T07:28:36.818Z,1004.16
2018-12-16T07:29:36.850Z,1004.15
2018-12-16T07:30:36.856Z,1004.18
2018-12-16T07:31:36.876Z,1004.14
2018-12-16T07:32:36.899Z,1004.12
2018-12-16T07:33:36.918Z,1004.15
2018-12-16T07:34:36.935Z,1004.17
2018-12-16T07:35:36.960Z,1004.11
2018-12-16T07:36:36.975Z,1004.13
2018-12-16T07:37:37.027Z,1004.15
2018-12-16T07:38:37.030Z,1004.17
2018-12-16T07:39:37.054Z,1004.19
2018-12-16T07:40:37.068Z,1004.20
2018-12-16T07:41:37.080Z,1004.20
2018-12-16T07:42:37.093Z,1004.12
2018-12-16T07:43:37.116Z,1004.12
2018-12-16T07:44:37.134Z,1004.11
2018-12-16T07:45:37.173Z,1004.04
2018-12-16T07:46:37.188Z,1004.08
2018-12-16T07:47:37.193Z,1004.06
2018-12-16T07:48:37.216Z,1004.07
2018-12-16T07:49:37.233Z,1004.05
2018-12-16T07:50:37.285Z,1004.00
2018-12-16T07:51:37.311Z,1004.04
2018-12-16T07:52:37.292Z,1004.08
2018-12-16T07:53:37.315Z,1004.09
2018-12-16T07:54:37.333Z,1004.10
2018-12-16T07:55:37.352Z,1004.15
2018-12-16T07:56:37.398Z,1004.10
2018-12-16T07:57:37.397Z,1004.14
2018-12-16T07:58:37.424Z,1004.14
2018-12-16T07:59:37.431Z,1004.13
2018-12-16T08:00:38.278Z,1004.14
2018-12-16T08:01:37.471Z,1004.09
2018-12-16T08:02:37.490Z,1004.13
2018-12-16T08:03:37.512Z,1004.16
2018-12-16T08:04:37.553Z,1004.17
2018-12-16T08:05:37.597Z,1004.17
2018-12-16T08:06:37.609Z,1004.19
2018-12-16T08:07:37.592Z,1004.22
2018-12-16T08:08:37.613Z,1004.20
2018-12-16T08:09:37.633Z,1004.20
2018-12-16T08:10:37.652Z,1004.20
2018-12-16T08:11:37.672Z,1004.22
2018-12-16T08:12:37.690Z,1004.24
2018-12-16T08:13:37.712Z,1004.25
2018-12-16T08:14:37.729Z,1004.22
2018-12-16T08:15:37.751Z,1004.22
2018-12-16T08:16:37.769Z,1004.25
2018-12-16T08:17:37.795Z,1004.24
2018-12-16T08:18:37.809Z,1004.26
2018-12-16T08:19:37.832Z,1004.23
2018-12-16T08:20:37.851Z,1004.28
2018-12-16T08:21:37.869Z,1004.26
2018-12-16T08:22:37.898Z,1004.26
2018-12-16T08:23:37.914Z,1004.20
2018-12-16T08:24:37.931Z,1004.22
2018-12-16T08:25:37.953Z,1004.23
2018-12-16T08:26:37.996Z,1004.20
2018-12-16T08:27:37.990Z,1004.15
2018-12-16T08:28:38.013Z,1004.17
2018-12-16T08:29:38.031Z,1004.27
2018-12-16T08:30:38.047Z,1004.24
2018-12-16T08:31:38.072Z,1004.25
2018-12-16T08:32:38.090Z,1004.24
2018-12-16T08:33:38.109Z,1004.21
2018-12-16T08:34:38.130Z,1004.18
2018-12-16T08:35:38.149Z,1004.15
2018-12-16T08:36:38.171Z,1004.17
2018-12-16T08:37:38.188Z,1004.17
2018-12-16T08:38:38.210Z,1004.23
2018-12-16T08:39:38.230Z,1004.21
2018-12-16T08:40:38.252Z,1004.23
2018-12-16T08:41:38.271Z,1004.22
2018-12-16T08:42:38.288Z,1004.19
2018-12-16T08:43:38.511Z,1004.22
2018-12-16T08:44:38.327Z,1004.20
2018-12-16T08:45:38.351Z,1004.17
2018-12-16T08:46:38.368Z,1004.20
2018-12-16T08:47:38.388Z,1004.26
2018-12-16T08:48:38.409Z,1004.25
2018-12-16T08:49:38.434Z,1004.23
2018-12-16T08:50:38.448Z,1004.24
2018-12-16T08:51:38.469Z,1004.27
2018-12-16T08:52:38.491Z,1004.28
2018-12-16T08:53:38.511Z,1004.24
2018-12-16T08:54:38.528Z,1004.24
2018-12-16T08:55:38.550Z,1004.31
2018-12-16T08:56:38.569Z,1004.29
2018-12-16T08:57:38.589Z,1004.28
2018-12-16T08:58:38.611Z,1004.29
2018-12-16T08:59:38.631Z,1004.29
2018-12-16T09:00:38.651Z,1004.30
2018-12-16T09:01:38.673Z,1004.29
2018-12-16T09:02:38.691Z,1004.29
2018-12-16T09:03:38.712Z,1004.35
2018-12-16T09:04:38.730Z,1004.35
2018-12-16T09:05:38.751Z,1004.41
2018-12-16T09:06:38.769Z,1004.42
2018-12-16T09:07:38.792Z,1004.41
2018-12-16T09:08:38.812Z,1004.41
2018-12-16T09:09:38.830Z,1004.44
2018-12-16T09:10:38.849Z,1004.44
2018-12-16T09:11:38.872Z,1004.38
2018-12-16T09:12:38.892Z,1004.37
2018-12-16T09:13:38.911Z,1004.39
2018-12-16T09:14:38.929Z,1004.41
2018-12-16T09:15:38.952Z,1004.38
2018-12-16T09:16:38.974Z,1004.37
2018-12-16T09:17:38.996Z,1004.42
2018-12-16T09:18:39.011Z,1004.37
2018-12-16T09:19:39.031Z,1004.41
2018-12-16T09:20:39.053Z,1004.42
2018-12-16T09:21:39.077Z,1004.41
2018-12-16T09:22:39.090Z,1004.50
2018-12-16T09:23:39.114Z,1004.45
2018-12-16T09:24:39.133Z,1004.46
2018-12-16T09:25:39.153Z,1004.47
2018-12-16T09:26:39.174Z,1004.39
2018-12-16T09:27:39.190Z,1004.45
2018-12-16T09:28:39.213Z,1004.43
2018-12-16T09:29:39.234Z,1004.51
2018-12-16T09:30:39.253Z,1004.50
2018-12-16T09:31:39.273Z,1004.48
2018-12-16T09:32:39.294Z,1004.48
2018-12-16T09:33:39.314Z,1004.45
2018-12-16T09:34:39.333Z,1004.49
2018-12-16T09:35:39.354Z,1004.46
2018-12-16T09:36:39.372Z,1004.46
2018-12-16T09:37:39.394Z,1004.48
2018-12-16T09:38:39.411Z,1004.48
2018-12-16T09:39:39.435Z,1004.48
2018-12-16T09:40:39.454Z,1004.50
2018-12-16T09:41:39.475Z,1004.54
2018-12-16T09:42:39.493Z,1004.52
2018-12-16T09:43:39.514Z,1004.48
2018-12-16T09:44:39.533Z,1004.51
2018-12-16T09:45:39.558Z,1004.50
2018-12-16T09:46:39.573Z,1004.48
2018-12-16T09:47:39.592Z,1004.45
2018-12-16T09:48:39.616Z,1004.45
2018-12-16T09:49:39.636Z,1004.48
2018-12-16T09:50:39.653Z,1004.47
2018-12-16T09:51:39.672Z,1004.42
2018-12-16T09:52:39.695Z,1004.43
2018-12-16T09:53:39.715Z,1004.45
2018-12-16T09:54:44.198Z,1004.39
2018-12-16T09:55:39.754Z,1004.42
2018-12-16T09:56:39.774Z,1004.39
2018-12-16T09:57:39.797Z,1004.38
2018-12-16T09:58:39.814Z,1004.42
2018-12-16T09:59:39.837Z,1004.34
2018-12-16T10:00:39.857Z,1004.41
2018-12-16T10:01:39.882Z,1004.45
2018-12-16T10:02:39.894Z,1004.46
2018-12-16T10:03:39.918Z,1004.41
2018-12-16T10:04:39.937Z,1004.45
2018-12-16T10:05:39.957Z,1004.41
2018-12-16T10:06:39.977Z,1004.35
2018-12-16T10:07:39.998Z,1004.38
2018-12-16T10:08:40.020Z,1004.32
2018-12-16T10:09:40.046Z,1004.33
2018-12-16T10:10:40.058Z,1004.37
2018-12-16T10:11:40.080Z,1004.31
2018-12-16T10:12:40.109Z,1004.28
2018-12-16T10:13:40.120Z,1004.29
2018-12-16T10:14:40.141Z,1004.30
2018-12-16T10:15:40.161Z,1004.23
2018-12-16T10:16:40.182Z,1004.29
2018-12-16T10:17:40.199Z,1004.31
2018-12-16T10:18:40.222Z,1004.29
2018-12-16T10:19:40.243Z,1004.24
2018-12-16T10:20:40.265Z,1004.25
2018-12-16T10:21:40.284Z,1004.19
2018-12-16T10:22:40.302Z,1004.18
2018-12-16T10:23:40.325Z,1004.18
2018-12-16T10:24:40.342Z,1004.20
2018-12-16T10:25:40.366Z,1004.20
2018-12-16T10:26:40.384Z,1004.20
2018-12-16T10:27:40.404Z,1004.15
2018-12-16T10:28:40.426Z,1004.19
2018-12-16T10:29:40.448Z,1004.16
2018-12-16T10:30:40.472Z,1004.21
2018-12-16T10:31:40.489Z,1004.15
2018-12-16T10:32:40.508Z,1004.18
2018-12-16T10:33:40.528Z,1004.17
2018-12-16T10:34:40.550Z,1004.12
2018-12-16T10:35:40.569Z,1004.11
2018-12-16T10:36:40.589Z,1004.11
2018-12-16T10:37:40.612Z,1004.08
2018-12-16T10:38:40.632Z,1004.12
2018-12-16T10:39:40.654Z,1004.15
2018-12-16T10:40:40.679Z,1004.13
2018-12-16T10:41:40.695Z,1004.14
2018-12-16T10:42:40.712Z,1004.14
2018-12-16T10:43:40.732Z,1004.09
2018-12-16T10:44:40.758Z,1004.09
2018-12-16T10:45:40.779Z,1004.07
2018-12-16T10:46:40.797Z,1004.14
2018-12-16T10:47:40.818Z,1004.08
2018-12-16T10:48:41.037Z,1004.07
2018-12-16T10:49:40.859Z,1004.08
2018-12-16T10:50:40.880Z,1004.06
2018-12-16T10:51:40.902Z,1004.04
2018-12-16T10:52:40.921Z,1004.03
2018-12-16T10:53:40.943Z,1003.98
2018-12-16T10:54:40.960Z,1003.98
2018-12-16T10:55:40.980Z,1004.00
2018-12-16T10:56:41.004Z,1003.94
2018-12-16T10:57:41.025Z,1003.98
2018-12-16T10:58:41.042Z,1003.91
2018-12-16T10:59:41.065Z,1003.97
2018-12-16T11:00:41.089Z,1003.96
2018-12-16T11:01:41.107Z,1003.97
2018-12-16T11:02:41.127Z,1003.93
2018-12-16T11:03:41.146Z,1003.96
2018-12-16T11:04:41.166Z,1003.96
2018-12-16T11:05:41.189Z,1003.95
2018-12-16T11:06:41.207Z,1003.97
2018-12-16T11:07:41.230Z,1003.96
2018-12-16T11:08:41.251Z,1003.95
2018-12-16T11:09:41.270Z,1003.95
2018-12-16T11:10:41.297Z,1003.96
2018-12-16T11:11:41.312Z,1003.93
2018-12-16T11:12:41.333Z,1003.95
2018-12-16T11:13:41.353Z,1003.94
2018-12-16T11:14:41.419Z,1003.92
2018-12-16T11:15:41.394Z,1003.94
2018-12-16T11:16:41.417Z,1003.90
2018-12-16T11:17:41.436Z,1003.92
2018-12-16T11:18:41.455Z,1003.86
2018-12-16T11:19:41.476Z,1003.89
2018-12-16T11:20:41.500Z,1003.86
2018-12-16T11:21:41.518Z,1003.92
2018-12-16T11:22:41.538Z,1003.90
2018-12-16T11:23:41.563Z,1003.87
2018-12-16T11:24:41.582Z,1003.86
2018-12-16T11:25:41.603Z,1003.84
2018-12-16T11:26:41.621Z,1003.84
2018-12-16T11:27:41.644Z,1003.82
2018-12-16T11:28:41.665Z,1003.79
2018-12-16T11:29:41.686Z,1003.81
2018-12-16T11:30:41.775Z,1003.81
2018-12-16T11:31:41.725Z,1003.75
2018-12-16T11:32:41.746Z,1003.79
2018-12-16T11:33:41.768Z,1003.71
2018-12-16T11:34:41.789Z,1003.75
2018-12-16T11:35:41.808Z,1003.77
2018-12-16T11:36:41.833Z,1003.76
2018-12-16T11:37:41.850Z,1003.74
2018-12-16T11:38:41.873Z,1003.73
2018-12-16T11:39:41.898Z,1003.68
2018-12-16T11:40:41.914Z,1003.69
2018-12-16T11:41:41.936Z,1003.70
2018-12-16T11:42:41.955Z,1003.76
2018-12-16T11:43:41.976Z,1003.74
2018-12-16T11:44:41.997Z,1003.68
2018-12-16T11:45:42.018Z,1003.75
2018-12-16T11:46:42.036Z,1003.74
2018-12-16T11:47:42.057Z,1003.70
2018-12-16T11:48:42.079Z,1003.73
2018-12-16T11:49:42.099Z,1003.70
2018-12-16T11:50:42.123Z,1003.69
2018-12-16T11:51:42.141Z,1003.70
2018-12-16T11:52:42.162Z,1003.67
2018-12-16T11:53:42.183Z,1003.67
2018-12-16T11:54:42.207Z,1003.66
2018-12-16T11:55:42.225Z,1003.71
2018-12-16T11:56:42.245Z,1003.70
2018-12-16T11:57:42.266Z,1003.67
2018-12-16T11:58:42.287Z,1003.70
2018-12-16T11:59:42.309Z,1003.68
2018-12-16T12:00:42.330Z,1003.66
2018-12-16T12:01:42.352Z,1003.66
2018-12-16T12:02:42.370Z,1003.69
2018-12-16T12:03:42.391Z,1003.68
2018-12-16T12:04:42.414Z,1003.68
2018-12-16T12:05:42.434Z,1003.63